Time;durP1;ratioP1;P1;durP2;ratioP2;P2;SDS_P1;SDS_P2;PMS_P1;PMS_P2;Temp;Humidity;BMP_temperature;BMP_pressure;BME280_temperature;BME280_humidity;BME280_pressure;Samples;Min_cycle;Max_cycle;Signal;HPM_P1;HPM_P2
2022/09/13 00:00:34;;;;;;;2.72;2.53;;;21.90;67.80;;;;;;5108752;28;20599;-39
2022/09/13 00:03:00;;;;;;;3.03;2.78;;;21.90;67.60;;;;;;5105394;28;20035;-39
2022/09/13 00:05:27;;;;;;;2.00;1.90;;;21.90;67.50;;;;;;5105835;28;20030;-39
2022/09/13 00:07:53;;;;;;;2.77;2.57;;;21.90;67.30;;;;;;5103942;28;20318;-40
2022/09/13 00:10:19;;;;;;;2.42;2.22;;;21.90;67.10;;;;;;5113184;28;20024;-39
2022/09/13 00:12:46;;;;;;;2.53;2.33;;;21.80;67.00;;;;;;5100135;28;20036;-40
2022/09/13 00:15:12;;;;;;;;;;;21.90;66.80;;;;;;5067973;28;20020;-39
2022/09/13 00:17:38;;;;;;;2.58;2.38;;;21.80;67.30;;;;;;5107759;28;19942;-39
2022/09/13 00:20:05;;;;;;;2.42;2.22;;;21.80;66.60;;;;;;5106885;28;20020;-39
2022/09/13 00:22:31;;;;;;;2.85;2.65;;;21.80;66.40;;;;;;5110702;28;20027;-42
2022/09/13 00:24:57;;;;;;;5.05;3.08;;;21.80;66.40;;;;;;5112555;28;20054;-40
2022/09/13 00:27:23;;;;;;;3.53;3.22;;;21.70;66.90;;;;;;5123614;28;20019;-41
2022/09/13 00:29:50;;;;;;;4.30;3.40;;;21.70;68.10;;;;;;5114912;28;20051;-41
2022/09/13 00:32:16;;;;;;;4.30;3.22;;;21.70;68.40;;;;;;5106283;28;20056;-42
2022/09/13 00:34:42;;;;;;;5.00;3.65;;;21.70;68.80;;;;;;5102617;28;20032;-40
2022/09/13 00:37:08;;;;;;;4.05;3.25;;;21.70;69.50;;;;;;5110472;28;20080;-41
2022/09/13 00:39:35;;;;;;;4.85;3.42;;;21.60;69.90;;;;;;5114390;28;20117;-41
2022/09/13 00:42:01;;;;;;;3.55;3.17;;;21.60;69.90;;;;;;5103931;28;20067;-43
2022/09/13 00:45:11;;;;;;;3.53;3.05;;;21.60;69.70;;;;;;5093510;28;20032;-42
2022/09/13 00:47:59;;;;;;;3.33;3.00;;;21.60;69.40;;;;;;5011433;28;20042;-41
2022/09/13 00:50:41;;;;;;;3.03;2.72;;;21.60;68.80;;;;;;5007118;28;20037;-40
2022/09/13 00:53:12;;;;;;;2.88;2.58;;;21.60;68.70;;;;;;5032754;28;20050;-39
2022/09/13 00:56:13;;;;;;;2.60;2.40;;;21.60;67.80;;;;;;5018790;28;20137;-39
2022/09/13 00:58:42;;;;;;;2.83;2.47;;;21.60;66.90;;;;;;4982360;28;20070;-39
2022/09/13 01:01:10;;;;;;;2.83;2.63;;;21.60;66.60;;;;;;5014801;28;20072;-39
2022/09/13 01:03:36;;;;;;;2.53;2.25;;;21.60;67.30;;;;;;4993037;28;20596;-39
2022/09/13 01:06:11;;;;;;;2.67;2.47;;;21.60;66.80;;;;;;5001521;28;20069;-37
2022/09/13 01:08:38;;;;;;;3.20;2.90;;;21.60;66.40;;;;;;5017971;28;20042;-35
2022/09/13 01:11:05;;;;;;;;;;;21.60;66.70;;;;;;5005282;28;20026;-35
2022/09/13 01:13:32;;;;;;;6.40;2.22;;;21.60;67.10;;;;;;5001954;28;19926;-35
2022/09/13 01:15:58;;;;;;;;;;;21.50;66.70;;;;;;5008212;28;20042;-38
2022/09/13 01:18:24;;;;;;;3.08;2.53;;;21.50;67.10;;;;;;5019014;28;19913;-37
2022/09/13 01:21:09;;;;;;;2.88;2.67;;;21.50;66.90;;;;;;5038333;28;20109;-37
2022/09/13 01:23:53;;;;;;;2.60;2.40;;;21.50;66.60;;;;;;5116333;28;20039;-37
2022/09/13 01:26:56;;;;;;;2.92;2.60;;;21.50;66.20;;;;;;5120738;28;20036;-37
2022/09/13 01:29:47;;;;;;;2.30;2.10;;;21.40;66.10;;;;;;5092659;28;20047;-38
2022/09/13 01:32:22;;;;;;;2.40;2.20;;;21.40;65.80;;;;;;5115304;28;20055;-37
2022/09/13 01:35:17;;;;;;;2.58;2.38;;;21.40;65.70;;;;;;5079847;28;20041;-37
2022/09/13 01:38:20;;;;;;;3.63;2.35;;;21.40;65.40;;;;;;5094169;28;20035;-37
2022/09/13 01:41:14;;;;;;;2.55;2.35;;;21.40;65.30;;;;;;5110602;28;20032;-38
2022/09/13 01:43:50;;;;;;;2.97;2.38;;;21.40;65.30;;;;;;5074378;28;20024;-38
2022/09/13 01:46:54;;;;;;;2.10;2.00;;;21.30;65.20;;;;;;5077306;28;20031;-38
2022/09/13 01:49:20;;;;;;;3.53;2.40;;;21.30;65.30;;;;;;5121527;28;20480;-37
2022/09/13 01:51:50;;;;;;;3.25;2.10;;;21.30;65.50;;;;;;5117694;28;20043;-37
2022/09/13 01:54:26;;;;;;;2.60;2.40;;;21.30;64.60;;;;;;5101436;28;20036;-37
2022/09/13 01:56:59;;;;;;;3.65;2.20;;;21.30;64.30;;;;;;5111943;28;20042;-37
2022/09/13 01:59:39;;;;;;;3.03;1.98;;;21.20;64.10;;;;;;5093379;28;20062;-37
2022/09/13 02:02:15;;;;;;;2.50;2.30;;;21.20;63.90;;;;;;5115882;28;20024;-37
2022/09/13 02:04:47;;;;;;;2.42;2.17;;;21.20;64.60;;;;;;5113726;28;20043;-37
2022/09/13 02:07:21;;;;;;;2.60;2.38;;;21.20;64.70;;;;;;5102877;28;20031;-37
2022/09/13 02:09:50;;;;;;;2.50;2.30;;;21.10;65.00;;;;;;5101847;28;20035;-37
2022/09/13 02:12:21;;;;;;;2.30;2.10;;;21.10;65.20;;;;;;5110240;28;20036;-37
2022/09/13 02:15:08;;;;;;;2.25;2.13;;;21.10;65.30;;;;;;5099898;28;20054;-37
2022/09/13 02:17:37;;;;;;;2.60;2.40;;;21.10;65.50;;;;;;5074565;28;20036;-37
2022/09/13 02:20:24;;;;;;;2.45;2.25;;;21.10;65.70;;;;;;5101770;28;20028;-37
2022/09/13 02:22:58;;;;;;;2.40;2.20;;;21.00;65.70;;;;;;5110699;28;20114;-37
2022/09/13 02:25:24;;;;;;;2.58;1.95;;;21.00;65.80;;;;;;5082075;28;20722;-37
2022/09/13 02:27:54;;;;;;;3.30;2.28;;;21.00;65.90;;;;;;5085033;28;20024;-37
2022/09/13 02:30:21;;;;;;;2.40;2.20;;;21.00;66.00;;;;;;5084275;28;20055;-37
2022/09/13 02:32:55;;;;;;;2.25;2.08;;;21.00;66.10;;;;;;5091194;28;20044;-37
2022/09/13 02:35:45;;;;;;;2.58;2.38;;;21.00;66.20;;;;;;5099901;28;20141;-36
2022/09/13 02:38:25;;;;;;;2.72;2.42;;;21.00;66.30;;;;;;5077109;28;20036;-36
2022/09/13 02:41:01;;;;;;;2.50;2.30;;;21.00;66.40;;;;;;5076944;28;20028;-36
2022/09/13 02:43:56;;;;;;;2.72;2.45;;;21.00;66.50;;;;;;5072560;28;20025;-37
2022/09/13 02:46:50;;;;;;;2.42;2.22;;;21.00;66.60;;;;;;5109071;28;20028;-37
2022/09/13 02:49:30;;;;;;;2.40;2.20;;;21.00;66.70;;;;;;5108824;28;20032;-37
2022/09/13 02:52:38;;;;;;;2.53;2.33;;;21.00;66.80;;;;;;5084063;28;20024;-37
2022/09/13 02:55:39;;;;;;;2.38;2.17;;;21.00;66.90;;;;;;5064656;28;20727;-36
2022/09/13 02:58:24;;;;;;;2.83;2.53;;;21.00;67.00;;;;;;5045367;28;20049;-36
2022/09/13 03:00:50;;;;;;;2.30;2.10;;;21.00;67.10;;;;;;5097372;28;20032;-36
2022/09/13 03:03:16;;;;;;;2.50;2.30;;;21.00;67.20;;;;;;5070602;28;20020;-39
2022/09/13 03:05:43;;;;;;;2.63;2.42;;;21.00;67.20;;;;;;5090680;28;20032;-41
2022/09/13 03:08:11;;;;;;;2.47;2.28;;;21.00;67.30;;;;;;5088989;28;20024;-41
2022/09/13 03:10:54;;;;;;;;;;;21.00;67.30;;;;;;5074157;28;20038;-53
2022/09/13 03:14:01;;;;;;;2.63;2.42;;;21.00;67.30;;;;;;5089847;28;19983;-49
2022/09/13 03:16:50;;;;;;;2.58;2.25;;;21.00;67.30;;;;;;5026026;28;20097;-59
2022/09/13 03:19:33;;;;;;;2.65;2.45;;;21.00;67.40;;;;;;4999649;28;20204;-58
2022/09/13 03:22:06;;;;;;;2.67;2.47;;;21.00;67.50;;;;;;5029784;28;20052;-52
2022/09/13 03:24:58;;;;;;;3.45;2.35;;;21.00;67.60;;;;;;5030413;28;20036;-46
2022/09/13 03:27:30;;;;;;;2.47;2.30;;;21.00;67.60;;;;;;5029459;28;20472;-55
2022/09/13 03:30:07;;;;;;;2.40;2.20;;;21.00;67.60;;;;;;5029738;28;20030;-51
2022/09/13 03:32:35;;;;;;;2.55;2.35;;;21.00;67.70;;;;;;5015696;28;20057;-50
2022/09/13 03:35:20;;;;;;;2.67;2.47;;;21.10;67.90;;;;;;5030923;28;20061;-51
2022/09/13 03:37:57;;;;;;;2.22;2.13;;;21.00;67.80;;;;;;5032622;28;20103;-52
2022/09/13 03:40:48;;;;;;;2.92;2.67;;;21.10;67.90;;;;;;5016427;28;20156;-51
2022/09/13 03:43:34;;;;;;;2.83;2.42;;;21.10;67.90;;;;;;5016962;28;20101;-50
2022/09/13 03:46:06;;;;;;;2.58;2.38;;;21.10;68.10;;;;;;5014064;28;20497;-45
2022/09/13 03:48:35;;;;;;;2.83;2.50;;;21.10;68.30;;;;;;5028543;28;20084;-46
2022/09/13 03:51:01;;;;;;;3.28;2.90;;;21.10;68.30;;;;;;5029105;28;20041;-53
2022/09/13 03:53:27;;;;;;;2.70;2.50;;;21.10;68.40;;;;;;5076198;28;20046;-53
2022/09/13 03:55:54;;;;;;;2.60;2.38;;;21.10;68.40;;;;;;5062664;28;20024;-53
2022/09/13 03:58:20;;;;;;;2.83;2.63;;;21.10;68.40;;;;;;5090349;28;20154;-54
2022/09/13 04:00:46;;;;;;;2.90;2.70;;;21.10;68.40;;;;;;5089846;28;20033;-54
2022/09/13 04:03:13;;;;;;;3.60;2.90;;;21.10;68.40;;;;;;5076659;28;20032;-53
2022/09/13 04:05:39;;;;;;;2.80;2.60;;;21.10;68.40;;;;;;5079531;28;20020;-54
2022/09/13 04:08:06;;;;;;;2.60;2.40;;;21.10;68.40;;;;;;5092416;28;21197;-53
2022/09/13 04:10:32;;;;;;;2.55;2.35;;;21.10;68.40;;;;;;5093389;28;20032;-52
2022/09/13 04:12:59;;;;;;;2.97;2.55;;;21.10;68.40;;;;;;5089537;28;20075;-51
2022/09/13 04:15:29;;;;;;;2.63;2.43;;;21.20;68.40;;;;;;5090857;28;20036;-54
2022/09/13 04:17:55;;;;;;;2.60;2.40;;;21.20;68.40;;;;;;5089409;28;20277;-54
2022/09/13 04:20:22;;;;;;;2.60;2.40;;;21.20;68.40;;;;;;5090854;28;20032;-46
2022/09/13 04:22:54;;;;;;;2.97;2.67;;;21.20;68.30;;;;;;5093237;28;20482;-47
2022/09/13 04:25:21;;;;;;;2.22;2.10;;;21.20;68.30;;;;;;5088542;28;20055;-46
2022/09/13 04:27:48;;;;;;;3.00;2.50;;;21.20;68.30;;;;;;5095048;28;20032;-46
2022/09/13 04:30:14;;;;;;;2.70;2.50;;;21.20;68.30;;;;;;5093299;28;20714;-45
2022/09/13 04:32:43;;;;;;;2.67;2.40;;;21.20;68.30;;;;;;5113745;28;20090;-46
2022/09/13 04:35:10;;;;;;;2.55;2.35;;;21.20;68.30;;;;;;5100882;28;20055;-47
2022/09/13 04:37:37;;;;;;;2.80;2.60;;;21.20;68.30;;;;;;5089350;28;20729;-45
2022/09/13 04:40:05;;;;;;;;;;;21.20;68.20;;;;;;5090368;28;20101;-45
2022/09/13 04:42:31;;;;;;;2.80;2.60;;;21.20;68.30;;;;;;5103728;28;19916;-46
2022/09/13 04:44:57;;;;;;;3.30;2.80;;;21.20;68.20;;;;;;5094880;28;20019;-45
2022/09/13 04:47:23;;;;;;;2.92;2.67;;;21.20;68.20;;;;;;5090005;28;20050;-47
2022/09/13 04:49:49;;;;;;;2.92;2.65;;;21.20;68.20;;;;;;5090980;28;20024;-47
2022/09/13 04:52:15;;;;;;;2.95;2.65;;;21.20;68.30;;;;;;5085557;28;20024;-47
2022/09/13 04:54:42;;;;;;;2.70;2.50;;;21.20;68.20;;;;;;5090126;28;20503;-46
2022/09/13 04:57:08;;;;;;;2.70;2.50;;;21.30;68.20;;;;;;5100466;28;20042;-46
2022/09/13 04:59:34;;;;;;;2.85;2.63;;;21.30;68.20;;;;;;5089131;28;20040;-48
2022/09/13 05:02:00;;;;;;;2.85;2.65;;;21.30;68.20;;;;;;5087312;28;20055;-46
2022/09/13 05:04:26;;;;;;;3.22;2.70;;;21.30;68.30;;;;;;5097260;28;20419;-45
2022/09/13 05:06:52;;;;;;;2.70;2.50;;;21.20;68.20;;;;;;5101534;28;20036;-46
2022/09/13 05:09:19;;;;;;;2.90;2.70;;;21.30;68.40;;;;;;5088530;28;20038;-45
2022/09/13 05:11:45;;;;;;;2.90;2.55;;;21.30;68.30;;;;;;5090646;28;20534;-46
2022/09/13 05:14:11;;;;;;;2.70;2.50;;;21.30;68.30;;;;;;5112932;28;20067;-47
2022/09/13 05:16:37;;;;;;;2.87;2.60;;;21.30;68.30;;;;;;5102685;28;20439;-47
2022/09/13 05:19:03;;;;;;;2.67;2.47;;;21.30;68.30;;;;;;5114017;28;20070;-46
2022/09/13 05:21:30;;;;;;;2.95;2.45;;;21.30;68.20;;;;;;5092334;28;20055;-45
2022/09/13 05:23:56;;;;;;;2.97;2.78;;;21.30;68.20;;;;;;5089774;28;20060;-50
2022/09/13 05:26:23;;;;;;;2.73;2.53;;;21.30;68.20;;;;;;5083765;28;20062;-47
2022/09/13 05:28:50;;;;;;;2.92;2.72;;;21.30;68.20;;;;;;5102367;28;20031;-53
2022/09/13 05:31:21;;;;;;;2.65;2.45;;;21.30;68.20;;;;;;5091057;28;20051;-53
2022/09/13 05:33:51;;;;;;;2.72;2.53;;;21.30;68.20;;;;;;5088717;28;20103;-54
2022/09/13 05:36:17;;;;;;;2.58;2.38;;;21.30;68.20;;;;;;5092218;28;20027;-54
2022/09/13 05:38:43;;;;;;;2.78;2.42;;;21.30;68.20;;;;;;5094683;28;20063;-55
2022/09/13 05:41:09;;;;;;;2.78;2.58;;;21.30;68.20;;;;;;5104585;28;20077;-54
2022/09/13 05:43:36;;;;;;;2.92;2.72;;;21.30;68.30;;;;;;5092274;28;20031;-55
2022/09/13 05:46:13;;;;;;;2.40;2.20;;;21.30;68.30;;;;;;5088698;28;20048;-55
2022/09/13 05:48:39;;;;;;;2.83;2.60;;;21.30;68.30;;;;;;5091040;28;20070;-56
2022/09/13 05:51:09;;;;;;;2.93;2.70;;;21.30;68.30;;;;;;5098532;28;20026;-54
2022/09/13 05:53:38;;;;;;;2.97;2.78;;;21.40;68.40;;;;;;5087879;28;20131;-54
2022/09/13 05:56:05;;;;;;;2.58;2.38;;;21.40;68.40;;;;;;5092125;28;20020;-57
2022/09/13 05:58:32;;;;;;;;;;;21.40;68.50;;;;;;5090010;28;20063;-55
2022/09/13 06:00:58;;;;;;;2.72;2.45;;;21.40;68.40;;;;;;5108717;28;19983;-56
2022/09/13 06:03:25;;;;;;;2.53;2.33;;;21.30;68.30;;;;;;5107598;28;20047;-51
2022/09/13 06:05:55;;;;;;;3.08;2.15;;;21.40;68.40;;;;;;5098225;28;20350;-53
2022/09/13 06:08:22;;;;;;;2.67;2.47;;;21.40;68.40;;;;;;5086901;28;20028;-55
2022/09/13 06:10:56;;;;;;;2.50;2.30;;;21.40;68.40;;;;;;5092310;28;20036;-54
2022/09/13 06:13:22;;;;;;;2.90;2.70;;;21.30;68.40;;;;;;5095005;28;20043;-56
2022/09/13 06:15:48;;;;;;;2.63;2.40;;;21.40;68.50;;;;;;5087401;28;20034;-55
2022/09/13 06:18:15;;;;;;;2.50;2.30;;;21.40;68.50;;;;;;5091778;28;20285;-51
2022/09/13 06:20:41;;;;;;;3.10;2.45;;;21.30;68.50;;;;;;5094681;28;20067;-51
2022/09/13 06:23:07;;;;;;;2.57;2.37;;;21.40;68.60;;;;;;5102305;28;20054;-52
2022/09/13 06:25:34;;;;;;;2.67;2.47;;;21.40;68.70;;;;;;5099887;28;22586;-53
2022/09/13 06:28:00;;;;;;;3.55;2.60;;;21.30;68.70;;;;;;5090149;28;20027;-52
2022/09/13 06:30:26;;;;;;;3.55;2.60;;;21.40;68.90;;;;;;5102622;28;20091;-50
2022/09/13 06:32:54;;;;;;;2.75;2.55;;;21.40;69.70;;;;;;5102051;28;20047;-53
2022/09/13 06:35:20;;;;;;;2.53;2.30;;;21.40;69.00;;;;;;5088796;28;20044;-50
2022/09/13 06:37:47;;;;;;;2.85;2.60;;;21.40;69.10;;;;;;5091981;28;20558;-52
2022/09/13 06:40:13;;;;;;;3.05;2.47;;;21.40;69.10;;;;;;5101135;28;20096;-51
2022/09/13 06:42:39;;;;;;;2.50;2.30;;;21.40;69.30;;;;;;5090134;28;20042;-51
2022/09/13 06:45:06;;;;;;;2.63;2.40;;;21.40;69.20;;;;;;5093426;28;20039;-48
2022/09/13 06:47:32;;;;;;;2.50;2.22;;;21.40;69.20;;;;;;5099363;28;20536;-49
2022/09/13 06:49:59;;;;;;;2.63;2.43;;;21.40;69.20;;;;;;5106348;28;20035;-51
2022/09/13 06:52:26;;;;;;;2.58;2.38;;;21.40;69.20;;;;;;5098178;28;20029;-53
2022/09/13 06:54:53;;;;;;;3.65;2.75;;;21.40;69.20;;;;;;5091261;28;20043;-50
2022/09/13 06:57:19;;;;;;;2.67;2.35;;;21.40;69.40;;;;;;5100928;28;20028;-49
2022/09/13 06:59:45;;;;;;;2.75;2.55;;;21.40;70.00;;;;;;5093310;28;20039;-49
2022/09/13 07:02:13;;;;;;;2.30;2.10;;;21.40;69.20;;;;;;5095298;28;20042;-55
2022/09/13 07:04:39;;;;;;;2.60;2.40;;;21.40;69.30;;;;;;5093699;28;20042;-49
2022/09/13 07:07:05;;;;;;;2.47;2.15;;;21.40;69.30;;;;;;5091159;28;20039;-54
2022/09/13 07:09:33;;;;;;;2.70;2.50;;;21.30;69.10;;;;;;5094886;28;20126;-53
2022/09/13 07:11:59;;;;;;;2.40;2.20;;;21.40;69.20;;;;;;5093568;28;20080;-50
2022/09/13 07:14:26;;;;;;;2.42;2.15;;;21.30;69.10;;;;;;5092583;28;20054;-53
2022/09/13 07:16:52;;;;;;;;;;;21.40;69.20;;;;;;5091245;28;20077;-52
2022/09/13 07:19:21;;;;;;;2.47;2.25;;;21.40;69.20;;;;;;5096385;28;19995;-54
2022/09/13 07:21:51;;;;;;;1.90;1.80;;;21.30;69.40;;;;;;5102522;28;20042;-51
2022/09/13 07:24:17;;;;;;;2.60;2.40;;;21.30;69.50;;;;;;5119001;28;20087;-51
2022/09/13 07:26:44;;;;;;;2.87;2.30;;;21.30;69.60;;;;;;5098861;28;20025;-54
2022/09/13 07:29:13;;;;;;;2.97;2.10;;;21.30;69.50;;;;;;5089311;28;20035;-55
2022/09/13 07:31:40;;;;;;;2.83;2.20;;;21.30;69.50;;;;;;5088592;28;20301;-53
2022/09/13 07:34:16;;;;;;;2.40;2.20;;;21.30;69.60;;;;;;5088351;28;20036;-55
2022/09/13 07:36:43;;;;;;;3.92;2.17;;;21.30;69.50;;;;;;5092549;28;20040;-56
2022/09/13 07:39:09;;;;;;;2.85;2.30;;;21.30;69.40;;;;;;5090952;28;20054;-54
2022/09/13 07:41:36;;;;;;;2.47;2.08;;;21.30;69.30;;;;;;5092728;28;20051;-56
2022/09/13 07:44:03;;;;;;;2.20;2.00;;;21.30;69.40;;;;;;5081004;28;20657;-54
2022/09/13 07:46:35;;;;;;;2.88;2.25;;;21.30;69.40;;;;;;5092550;28;20024;-54
2022/09/13 07:49:01;;;;;;;2.13;1.92;;;21.30;69.50;;;;;;5089938;28;20103;-51
2022/09/13 07:51:29;;;;;;;2.17;1.95;;;21.30;69.30;;;;;;5090617;28;20030;-52
2022/09/13 07:54:00;;;;;;;2.88;2.00;;;21.30;69.40;;;;;;5089729;28;20036;-49
2022/09/13 07:56:33;;;;;;;2.40;2.20;;;21.30;69.60;;;;;;5089461;28;20029;-53
2022/09/13 07:59:00;;;;;;;2.45;1.90;;;21.30;69.60;;;;;;5084432;28;20089;-52
2022/09/13 08:01:37;;;;;;;2.70;2.05;;;21.30;69.50;;;;;;5094852;28;20028;-49
2022/09/13 08:04:05;;;;;;;2.42;2.03;;;21.30;69.40;;;;;;5100718;28;20028;-59
2022/09/13 08:06:32;;;;;;;1.98;1.88;;;21.30;69.40;;;;;;5101164;28;20028;-58
2022/09/13 08:08:58;;;;;;;2.25;2.08;;;21.30;69.30;;;;;;5092429;28;20035;-57
2022/09/13 08:11:25;;;;;;;2.03;1.92;;;21.30;69.30;;;;;;5089211;28;20070;-61
2022/09/13 08:13:51;;;;;;;2.35;2.00;;;21.30;69.30;;;;;;5096611;28;20045;-39
2022/09/13 08:16:19;;;;;;;2.13;2.03;;;21.30;69.20;;;;;;5066830;28;20066;-61
2022/09/13 08:18:49;;;;;;;2.03;1.83;;;21.30;69.40;;;;;;5100702;28;20730;-62
2022/09/13 08:21:15;;;;;;;3.10;2.05;;;21.30;69.50;;;;;;5094805;28;20079;-53
2022/09/13 08:23:42;;;;;;;5.43;2.00;;;21.20;69.60;;;;;;5095678;28;20035;-55
2022/09/13 08:26:09;;;;;;;7.23;2.30;;;21.30;69.90;;;;;;5104052;28;20028;-58
2022/09/13 08:28:35;;;;;;;13.23;2.88;;;21.30;70.00;;;;;;5107994;28;20039;-53
2022/09/13 08:31:28;;;;;;;7.93;2.50;;;21.20;70.30;;;;;;5103722;28;20153;-46
2022/09/13 08:33:54;;;;;;;8.85;2.20;;;21.30;70.30;;;;;;5085168;28;20301;-50
2022/09/13 08:36:22;;;;;;;7.45;2.80;;;21.30;70.30;;;;;;5115307;28;20049;-52
2022/09/13 08:38:57;;;;;;;5.80;2.40;;;21.30;70.30;;;;;;5096106;28;20036;-50
2022/09/13 08:41:45;;;;;;;5.65;2.20;;;21.30;70.20;;;;;;5074654;28;20031;-52
2022/09/13 08:44:17;;;;;;;3.83;2.13;;;21.30;70.10;;;;;;5081030;28;20032;-53
2022/09/13 08:46:44;;;;;;;5.32;2.28;;;21.30;70.00;;;;;;5076973;28;20092;-52
2022/09/13 08:49:24;;;;;;;3.08;2.20;;;21.30;69.90;;;;;;5097379;28;20036;-50
2022/09/13 08:51:52;;;;;;;3.80;2.10;;;21.30;69.80;;;;;;5090671;28;20043;-48
2022/09/13 08:54:19;;;;;;;4.22;2.17;;;21.20;69.70;;;;;;5093678;28;20758;-50
2022/09/13 08:56:53;;;;;;;4.13;2.70;;;21.30;69.60;;;;;;5073829;28;20025;-52
2022/09/13 08:59:53;;;;;;;3.97;2.38;;;21.20;69.40;;;;;;5087829;28;20035;-49
2022/09/13 09:02:57;;;;;;;3.00;2.00;;;21.20;69.40;;;;;;5059412;28;20036;-51
2022/09/13 09:05:28;;;;;;;3.00;2.20;;;21.20;69.20;;;;;;5083966;28;20093;-52
2022/09/13 09:08:01;;;;;;;2.72;2.20;;;21.20;69.20;;;;;;5088152;28;20780;-51
2022/09/13 09:10:28;;;;;;;3.90;2.17;;;21.20;69.20;;;;;;5071788;28;20552;-51
2022/09/13 09:12:55;;;;;;;;;;;21.20;69.10;;;;;;5091738;28;20160;-50
2022/09/13 09:15:26;;;;;;;4.47;2.15;;;21.20;69.00;;;;;;5086873;28;19965;-51
2022/09/13 09:17:59;;;;;;;2.80;2.15;;;21.20;69.10;;;;;;5094459;28;20112;-52
2022/09/13 09:20:35;;;;;;;3.22;2.10;;;21.20;69.00;;;;;;5118610;28;20066;-51
2022/09/13 09:23:04;;;;;;;3.55;2.30;;;21.20;69.00;;;;;;5087249;28;20035;-54
2022/09/13 09:25:30;;;;;;;3.42;2.00;;;21.10;68.80;;;;;;5071921;28;20087;-55
2022/09/13 09:27:56;;;;;;;3.15;2.03;;;21.10;68.80;;;;;;5091999;28;20028;-53
2022/09/13 09:30:23;;;;;;;2.97;2.00;;;21.10;68.80;;;;;;5069585;28;20028;-53
2022/09/13 09:33:08;;;;;;;3.65;1.88;;;21.10;68.70;;;;;;5082224;28;20036;-55
2022/09/13 09:35:48;;;;;;;2.83;2.00;;;21.10;68.80;;;;;;5088012;28;20032;-56
2022/09/13 09:38:30;;;;;;;2.75;1.83;;;21.10;68.70;;;;;;5069616;28;20023;-54
2022/09/13 09:40:58;;;;;;;2.55;1.92;;;21.10;68.60;;;;;;5096431;28;20058;-55
2022/09/13 09:43:32;;;;;;;3.63;1.90;;;21.10;68.60;;;;;;5078546;28;20055;-55
2022/09/13 09:45:58;;;;;;;3.05;2.00;;;21.10;68.60;;;;;;5081038;28;20048;-56
2022/09/13 09:48:28;;;;;;;2.72;1.70;;;21.10;68.60;;;;;;5086700;28;20483;-54
2022/09/13 09:50:59;;;;;;;3.95;2.08;;;21.00;68.60;;;;;;5090715;28;20036;-53
2022/09/13 09:53:34;;;;;;;2.42;1.92;;;21.00;68.60;;;;;;5080303;28;20039;-55
2022/09/13 09:56:05;;;;;;;2.95;1.80;;;21.00;68.50;;;;;;5093755;28;20032;-54
2022/09/13 09:58:39;;;;;;;3.08;1.88;;;21.00;68.50;;;;;;5092002;28;20056;-54
2022/09/13 10:01:13;;;;;;;5.38;1.77;;;21.00;68.60;;;;;;5075626;28;20090;-56
2022/09/13 10:03:39;;;;;;;2.03;1.80;;;21.00;68.50;;;;;;5070187;28;20057;-56
2022/09/13 10:06:13;;;;;;;1.98;1.80;;;21.00;68.50;;;;;;5086199;28;20045;-57
2022/09/13 10:08:40;;;;;;;3.78;1.90;;;21.00;68.50;;;;;;5069037;28;20016;-54
2022/09/13 10:11:07;;;;;;;2.03;1.83;;;21.00;68.50;;;;;;5069446;28;20122;-52
2022/09/13 10:13:33;;;;;;;2.05;1.70;;;20.90;68.40;;;;;;5086695;28;20042;-54
2022/09/13 10:16:03;;;;;;;1.88;1.77;;;20.90;68.40;;;;;;5098548;28;20048;-51
2022/09/13 10:18:31;;;;;;;2.30;1.65;;;20.90;68.40;;;;;;5102171;28;20028;-58
2022/09/13 10:21:09;;;;;;;;;;;20.90;68.40;;;;;;5074080;28;20016;-56
2022/09/13 10:23:35;;;;;;;1.80;1.60;;;20.90;68.40;;;;;;5104516;28;20195;-36
2022/09/13 10:26:03;;;;;;;3.60;1.98;;;20.90;68.40;;;;;;5099120;28;20036;-35
2022/09/13 10:28:35;;;;;;;3.25;1.88;;;20.90;68.40;;;;;;5097707;28;20031;-36
2022/09/13 10:31:09;;;;;;;1.70;1.60;;;20.90;68.40;;;;;;5081036;28;20051;-35
2022/09/13 10:33:36;;;;;;;6.07;1.90;;;20.90;68.50;;;;;;5095488;28;20751;-36
2022/09/13 10:36:05;;;;;;;5.40;1.85;;;20.80;68.70;;;;;;5079642;28;20030;-34
2022/09/13 10:38:36;;;;;;;6.30;1.75;;;20.80;69.30;;;;;;5101227;28;20033;-36
2022/09/13 10:41:05;;;;;;;31.08;7.35;;;20.80;69.50;;;;;;5090923;28;20016;-37
2022/09/13 10:43:31;;;;;;;68.47;16.48;;;20.80;69.60;;;;;;5097117;28;20035;-36
2022/09/13 10:45:58;;;;;;;103.45;24.52;;;20.80;69.90;;;;;;5071009;28;20023;-35
2022/09/13 10:48:24;;;;;;;95.57;22.50;;;20.80;70.00;;;;;;5090417;28;20040;-35
2022/09/13 10:51:03;;;;;;;74.40;20.63;;;20.90;70.30;;;;;;5094727;28;20039;-34
2022/09/13 10:53:36;;;;;;;68.90;17.85;;;20.80;70.40;;;;;;5101053;28;20036;-37
2022/09/13 10:56:02;;;;;;;68.43;16.42;;;20.80;70.30;;;;;;5113329;28;20023;-35
2022/09/13 10:58:29;;;;;;;62.63;15.80;;;20.90;70.50;;;;;;5094248;28;20027;-37
2022/09/13 11:01:04;;;;;;;55.05;13.90;;;20.80;70.40;;;;;;5112224;28;20031;-36
2022/09/13 11:03:58;;;;;;;53.10;13.05;;;20.90;70.60;;;;;;5110990;28;20020;-36
2022/09/13 11:06:39;;;;;;;44.13;12.82;;;20.80;70.40;;;;;;5105414;28;20036;-36
2022/09/13 11:09:38;;;;;;;41.47;11.32;;;20.80;70.40;;;;;;5105430;28;20046;-35
2022/09/13 11:12:25;;;;;;;38.95;10.30;;;20.80;70.30;;;;;;5084938;28;20032;-36
2022/09/13 11:15:24;;;;;;;30.10;9.30;;;20.80;70.30;;;;;;5085119;28;20056;-36
2022/09/13 11:18:21;;;;;;;33.95;9.80;;;20.80;70.20;;;;;;5091961;28;20039;-36
2022/09/13 11:20:56;;;;;;;29.10;9.52;;;20.80;70.20;;;;;;5120182;28;20038;-36
2022/09/13 11:23:34;;;;;;;23.77;7.80;;;20.80;70.20;;;;;;5076295;28;20066;-36
2022/09/13 11:26:09;;;;;;;21.42;7.70;;;20.80;70.10;;;;;;5105255;28;20031;-36
2022/09/13 11:28:37;;;;;;;21.95;7.53;;;20.80;70.10;;;;;;5090181;28;20043;-36
2022/09/13 11:31:17;;;;;;;24.48;8.07;;;20.80;70.10;;;;;;5106909;28;20047;-35
2022/09/13 11:33:52;;;;;;;23.08;7.03;;;20.80;70.10;;;;;;5117943;28;20101;-36
2022/09/13 11:36:30;;;;;;;21.75;6.97;;;20.80;70.10;;;;;;5108418;28;20518;-36
2022/09/13 11:39:20;;;;;;;17.13;6.90;;;20.80;70.00;;;;;;5123983;28;20086;-35
2022/09/13 11:42:02;;;;;;;15.82;5.80;;;20.80;70.10;;;;;;5123944;28;20055;-36
2022/09/13 11:44:45;;;;;;;13.95;6.00;;;20.80;70.00;;;;;;5084528;28;20028;-35
2022/09/13 11:47:17;;;;;;;13.45;5.65;;;20.80;70.00;;;;;;5098565;28;20031;-36
2022/09/13 11:50:05;;;;;;;15.05;5.35;;;20.80;70.00;;;;;;5084957;28;20427;-36
2022/09/13 11:52:35;;;;;;;13.93;5.43;;;20.70;70.00;;;;;;5084698;28;20033;-36
2022/09/13 11:55:21;;;;;;;15.50;5.32;;;20.70;69.80;;;;;;5093968;28;20813;-36
2022/09/13 11:58:03;;;;;;;12.60;4.95;;;20.80;70.00;;;;;;5119630;28;20039;-36
2022/09/13 12:00:48;;;;;;;15.68;5.32;;;20.70;69.80;;;;;;5124046;28;20050;-35
2022/09/13 12:03:24;;;;;;;13.50;4.97;;;20.70;69.80;;;;;;5116673;28;20040;-36
2022/09/13 12:06:05;;;;;;;11.63;4.38;;;20.70;69.80;;;;;;5089425;28;20028;-36
2022/09/13 12:08:36;;;;;;;13.65;4.95;;;20.70;69.80;;;;;;5122811;28;20077;-35
2022/09/13 12:11:12;;;;;;;10.93;5.13;;;20.70;69.80;;;;;;5106669;28;20058;-36
2022/09/13 12:13:40;;;;;;;10.57;4.72;;;20.70;69.70;;;;;;5091961;28;20043;-36
2022/09/13 12:16:08;;;;;;;12.25;4.93;;;20.70;69.80;;;;;;5103766;28;20104;-36
2022/09/13 12:18:37;;;;;;;12.70;4.82;;;20.70;69.70;;;;;;5091148;28;20035;-36
2022/09/13 12:21:10;;;;;;;9.68;4.38;;;20.70;69.80;;;;;;5101865;28;20028;-36
2022/09/13 12:24:04;;;;;;;9.73;3.88;;;20.70;69.80;;;;;;5086667;28;20103;-36
2022/09/13 12:27:09;;;;;;;8.50;3.80;;;20.70;69.80;;;;;;5118584;28;20045;-36
2022/09/13 12:29:38;;;;;;;9.68;4.25;;;20.70;69.80;;;;;;5040678;28;20040;-36
2022/09/13 12:32:05;;;;;;;11.27;4.03;;;20.70;69.80;;;;;;5021243;28;20078;-36
2022/09/13 12:34:41;;;;;;;9.88;3.97;;;20.60;69.70;;;;;;5028588;28;20508;-36
2022/09/13 12:37:19;;;;;;;9.00;3.97;;;20.60;69.70;;;;;;5024422;28;20111;-36
2022/09/13 12:39:56;;;;;;;9.63;3.90;;;20.60;69.70;;;;;;5036583;28;20042;-35
2022/09/13 12:42:37;;;;;;;10.15;4.13;;;20.60;69.60;;;;;;5021198;28;20117;-36
2022/09/13 12:45:10;;;;;;;6.15;3.72;;;20.60;69.70;;;;;;5021305;28;20033;-36
2022/09/13 12:48:05;;;;;;;12.38;4.22;;;20.60;69.60;;;;;;5020882;28;20142;-36
2022/09/13 12:51:00;;;;;;;8.13;3.53;;;20.60;69.60;;;;;;5020960;28;20041;-36
2022/09/13 12:53:55;;;;;;;8.20;3.63;;;20.60;69.70;;;;;;4962495;29;20044;-36
2022/09/13 12:56:40;;;;;;;7.63;3.60;;;20.60;69.70;;;;;;4943879;28;20097;-36
2022/09/13 12:59:28;;;;;;;8.10;3.78;;;20.60;69.70;;;;;;4977334;28;20526;-35
2022/09/13 13:01:54;;;;;;;6.82;3.75;;;20.60;69.70;;;;;;4961003;28;20067;-36
2022/09/13 13:04:31;;;;;;;7.15;3.40;;;20.60;69.60;;;;;;4947772;29;20035;-35
2022/09/13 13:07:05;;;;;;;5.32;3.03;;;20.60;69.70;;;;;;4998076;28;20045;-35
2022/09/13 13:09:52;;;;;;;7.22;3.42;;;20.60;69.70;;;;;;5004630;28;20042;-36
2022/09/13 13:12:33;;;;;;;6.30;3.03;;;20.60;69.70;;;;;;4996566;28;20105;-36
2022/09/13 13:15:05;;;;;;;6.35;3.25;;;20.60;69.80;;;;;;5002818;28;20045;-36
2022/09/13 13:17:41;;;;;;;6.63;3.17;;;20.60;69.80;;;;;;5019737;28;20582;-35